sensor_id;sensor_type;location;lat;lon;timestamp;pressure;altitude;pressure_sealevel;temperature;humidity
70254;BME280;57649;42.968;1.608;2022-08-26T00:00:28;97439.16;;;19.75;94.74
70254;BME280;57649;42.968;1.608;2022-08-26T00:02:53;97433.75;;;19.68;95.21
70254;BME280;57649;42.968;1.608;2022-08-26T00:05:19;97427.03;;;19.71;95.63
70254;BME280;57649;42.968;1.608;2022-08-26T00:07:45;97436.94;;;19.84;93.88
70254;BME280;57649;42.968;1.608;2022-08-26T00:10:11;97425.50;;;19.81;93.42
70254;BME280;57649;42.968;1.608;2022-08-26T00:12:37;97425.97;;;19.78;93.66
70254;BME280;57649;42.968;1.608;2022-08-26T00:15:05;97421.72;;;19.83;93.67
70254;BME280;57649;42.968;1.608;2022-08-26T00:17:31;97419.00;;;19.83;93.78
70254;BME280;57649;42.968;1.608;2022-08-26T00:19:56;97419.94;;;19.76;94.14
70254;BME280;57649;42.968;1.608;2022-08-26T00:22:21;97424.28;;;19.77;94.65
70254;BME280;57649;42.968;1.608;2022-08-26T00:24:47;97404.44;;;19.77;94.69
70254;BME280;57649;42.968;1.608;2022-08-26T00:27:12;97401.41;;;19.85;95.15
70254;BME280;57649;42.968;1.608;2022-08-26T00:29:38;97401.63;;;19.84;93.81
70254;BME280;57649;42.968;1.608;2022-08-26T00:32:04;97406.78;;;19.92;92.93
70254;BME280;57649;42.968;1.608;2022-08-26T00:34:30;97414.78;;;19.87;91.49
70254;BME280;57649;42.968;1.608;2022-08-26T00:36:55;97407.78;;;19.79;92.63
70254;BME280;57649;42.968;1.608;2022-08-26T00:39:21;97413.13;;;19.86;93.70
70254;BME280;57649;42.968;1.608;2022-08-26T00:41:47;97408.31;;;19.88;93.19
70254;BME280;57649;42.968;1.608;2022-08-26T00:44:12;97406.19;;;19.90;93.96
70254;BME280;57649;42.968;1.608;2022-08-26T00:46:42;97401.63;;;19.84;94.16
70254;BME280;57649;42.968;1.608;2022-08-26T00:49:19;97412.81;;;19.75;93.92
70254;BME280;57649;42.968;1.608;2022-08-26T00:51:50;97409.88;;;19.77;94.64
70254;BME280;57649;42.968;1.608;2022-08-26T00:54:18;97411.53;;;19.78;93.11
70254;BME280;57649;42.968;1.608;2022-08-26T00:59:14;97415.31;;;19.77;93.41
70254;BME280;57649;42.968;1.608;2022-08-26T01:01:42;97417.25;;;19.70;94.47
70254;BME280;57649;42.968;1.608;2022-08-26T01:04:09;97409.16;;;19.63;93.67
70254;BME280;57649;42.968;1.608;2022-08-26T01:06:35;97421.25;;;19.67;93.69
70254;BME280;57649;42.968;1.608;2022-08-26T01:09:00;97414.53;;;19.70;94.03
70254;BME280;57649;42.968;1.608;2022-08-26T01:11:26;97423.72;;;19.69;93.86
70254;BME280;57649;42.968;1.608;2022-08-26T01:13:53;97431.03;;;19.68;94.00
70254;BME280;57649;42.968;1.608;2022-08-26T01:16:20;97429.41;;;19.67;94.48
70254;BME280;57649;42.968;1.608;2022-08-26T01:18:46;97436.44;;;19.75;93.23
70254;BME280;57649;42.968;1.608;2022-08-26T01:21:21;97436.31;;;19.63;94.76
70254;BME280;57649;42.968;1.608;2022-08-26T01:23:51;97428.47;;;19.55;94.83
70254;BME280;57649;42.968;1.608;2022-08-26T01:26:22;97436.91;;;19.65;93.69
70254;BME280;57649;42.968;1.608;2022-08-26T01:28:50;97445.44;;;19.69;92.64
70254;BME280;57649;42.968;1.608;2022-08-26T01:31:20;97444.09;;;19.59;94.34
70254;BME280;57649;42.968;1.608;2022-08-26T01:34:04;97442.88;;;19.55;93.28
70254;BME280;57649;42.968;1.608;2022-08-26T01:36:32;97442.50;;;19.52;96.06
70254;BME280;57649;42.968;1.608;2022-08-26T01:38:57;97441.06;;;19.49;95.32
70254;BME280;57649;42.968;1.608;2022-08-26T01:41:24;97444.84;;;19.48;96.28
70254;BME280;57649;42.968;1.608;2022-08-26T01:43:52;97445.25;;;19.45;96.84
70254;BME280;57649;42.968;1.608;2022-08-26T01:46:21;97441.94;;;19.43;97.09
70254;BME280;57649;42.968;1.608;2022-08-26T01:48:48;97449.28;;;19.42;96.27
70254;BME280;57649;42.968;1.608;2022-08-26T01:51:16;97450.69;;;19.45;96.19
70254;BME280;57649;42.968;1.608;2022-08-26T01:53:43;97452.75;;;19.50;96.63
70254;BME280;57649;42.968;1.608;2022-08-26T01:56:09;97457.41;;;19.42;96.45
70254;BME280;57649;42.968;1.608;2022-08-26T01:58:42;97453.56;;;19.50;95.05
70254;BME280;57649;42.968;1.608;2022-08-26T02:01:10;97453.53;;;19.57;95.46
70254;BME280;57649;42.968;1.608;2022-08-26T02:03:40;97453.47;;;19.64;95.61
70254;BME280;57649;42.968;1.608;2022-08-26T02:06:07;97449.28;;;19.61;95.35
70254;BME280;57649;42.968;1.608;2022-08-26T02:08:40;97446.31;;;19.69;95.23
70254;BME280;57649;42.968;1.608;2022-08-26T02:11:06;97445.97;;;19.59;96.77
70254;BME280;57649;42.968;1.608;2022-08-26T02:13:33;97453.56;;;19.50;95.88
70254;BME280;57649;42.968;1.608;2022-08-26T02:16:02;97456.41;;;19.62;96.45
70254;BME280;57649;42.968;1.608;2022-08-26T02:18:29;97459.28;;;19.67;96.31
70254;BME280;57649;42.968;1.608;2022-08-26T02:20:57;97455.16;;;19.58;96.50
70254;BME280;57649;42.968;1.608;2022-08-26T02:23:23;97463.09;;;19.59;96.83
70254;BME280;57649;42.968;1.608;2022-08-26T02:25:59;97461.50;;;19.52;97.60
70254;BME280;57649;42.968;1.608;2022-08-26T02:28:31;97471.28;;;19.34;96.52
70254;BME280;57649;42.968;1.608;2022-08-26T02:30:58;97464.69;;;19.23;96.82
70254;BME280;57649;42.968;1.608;2022-08-26T02:33:23;97471.88;;;19.36;97.28
70254;BME280;57649;42.968;1.608;2022-08-26T02:35:49;97463.28;;;19.39;97.71
70254;BME280;57649;42.968;1.608;2022-08-26T02:38:14;97457.25;;;19.37;96.82
70254;BME280;57649;42.968;1.608;2022-08-26T02:40:41;97456.91;;;19.52;98.09
70254;BME280;57649;42.968;1.608;2022-08-26T02:43:08;97464.97;;;19.40;96.63
70254;BME280;57649;42.968;1.608;2022-08-26T02:45:34;97473.66;;;19.24;96.30
70254;BME280;57649;42.968;1.608;2022-08-26T02:48:07;97452.28;;;19.34;96.21
70254;BME280;57649;42.968;1.608;2022-08-26T02:50:34;97459.22;;;19.49;95.54
70254;BME280;57649;42.968;1.608;2022-08-26T02:52:59;97455.91;;;19.47;95.92
70254;BME280;57649;42.968;1.608;2022-08-26T02:55:25;97453.53;;;19.57;94.98
70254;BME280;57649;42.968;1.608;2022-08-26T02:57:51;97457.00;;;19.64;93.27
70254;BME280;57649;42.968;1.608;2022-08-26T03:00:17;97459.03;;;19.69;93.75
70254;BME280;57649;42.968;1.608;2022-08-26T03:02:42;97463.81;;;19.73;94.94
70254;BME280;57649;42.968;1.608;2022-08-26T03:05:09;97467.31;;;19.80;93.10
70254;BME280;57649;42.968;1.608;2022-08-26T03:07:35;97460.34;;;19.85;92.67
70254;BME280;57649;42.968;1.608;2022-08-26T03:10:01;97459.22;;;19.74;93.53
70254;BME280;57649;42.968;1.608;2022-08-26T03:12:26;97460.41;;;19.78;93.06
70254;BME280;57649;42.968;1.608;2022-08-26T03:14:52;97455.38;;;19.81;92.67
70254;BME280;57649;42.968;1.608;2022-08-26T03:17:17;97460.41;;;19.78;92.72
70254;BME280;57649;42.968;1.608;2022-08-26T03:19:42;97459.81;;;19.76;92.64
70254;BME280;57649;42.968;1.608;2022-08-26T03:22:08;97451.44;;;19.77;92.99
70254;BME280;57649;42.968;1.608;2022-08-26T03:24:33;97458.19;;;19.75;93.48
70254;BME280;57649;42.968;1.608;2022-08-26T03:26:59;97460.66;;;19.76;93.84
70254;BME280;57649;42.968;1.608;2022-08-26T03:29:26;97465.19;;;19.83;93.18
70254;BME280;57649;42.968;1.608;2022-08-26T03:32:10;97461.19;;;19.85;91.45
70254;BME280;57649;42.968;1.608;2022-08-26T03:34:35;97467.31;;;19.80;92.41
70254;BME280;57649;42.968;1.608;2022-08-26T03:37:01;97461.31;;;19.72;93.76
70254;BME280;57649;42.968;1.608;2022-08-26T03:39:27;97465.16;;;19.64;93.10
70254;BME280;57649;42.968;1.608;2022-08-26T03:41:53;97467.16;;;19.75;93.96
70254;BME280;57649;42.968;1.608;2022-08-26T03:44:20;97464.84;;;19.72;94.01
70254;BME280;57649;42.968;1.608;2022-08-26T03:46:45;97465.47;;;19.74;93.74
70254;BME280;57649;42.968;1.608;2022-08-26T03:49:11;97462.13;;;19.72;93.80
70254;BME280;57649;42.968;1.608;2022-08-26T03:51:36;97453.59;;;19.69;93.22
70254;BME280;57649;42.968;1.608;2022-08-26T03:54:03;97462.13;;;19.72;93.37
70254;BME280;57649;42.968;1.608;2022-08-26T03:56:29;97457.59;;;19.66;93.03
70254;BME280;57649;42.968;1.608;2022-08-26T03:58:58;97452.84;;;19.61;93.20
70254;BME280;57649;42.968;1.608;2022-08-26T04:01:24;97453.53;;;19.57;93.26
70254;BME280;57649;42.968;1.608;2022-08-26T04:03:49;97450.50;;;19.65;94.41
70254;BME280;57649;42.968;1.608;2022-08-26T04:09:00;97461.22;;;19.60;94.94
70254;BME280;57649;42.968;1.608;2022-08-26T04:11:28;97459.56;;;19.59;94.83
70254;BME280;57649;42.968;1.608;2022-08-26T04:13:58;97453.47;;;19.64;95.27
70254;BME280;57649;42.968;1.608;2022-08-26T04:16:25;97461.88;;;19.55;94.96
70254;BME280;57649;42.968;1.608;2022-08-26T04:18:51;97464.81;;;19.54;95.89
70254;BME280;57649;42.968;1.608;2022-08-26T04:21:16;97455.16;;;19.58;95.65
70254;BME280;57649;42.968;1.608;2022-08-26T04:23:42;97460.97;;;19.61;95.11
70254;BME280;57649;42.968;1.608;2022-08-26T04:26:08;97455.94;;;19.65;94.86
70254;BME280;57649;42.968;1.608;2022-08-26T04:28:33;97458.19;;;19.50;95.73
70254;BME280;57649;42.968;1.608;2022-08-26T04:30:59;97451.56;;;19.46;97.82
70254;BME280;57649;42.968;1.608;2022-08-26T04:33:25;97447.31;;;19.50;97.53
70254;BME280;57649;42.968;1.608;2022-08-26T04:35:58;97447.66;;;19.60;97.57
70254;BME280;57649;42.968;1.608;2022-08-26T04:38:23;97452.38;;;19.46;96.56
70254;BME280;57649;42.968;1.608;2022-08-26T04:40:49;97444.44;;;19.45;97.63
70254;BME280;57649;42.968;1.608;2022-08-26T04:43:14;97442.34;;;19.47;96.11
70254;BME280;57649;42.968;1.608;2022-08-26T04:45:40;97459.91;;;19.44;96.74
70254;BME280;57649;42.968;1.608;2022-08-26T04:48:06;97450.19;;;19.36;97.11
70254;BME280;57649;42.968;1.608;2022-08-26T04:50:31;97446.19;;;19.39;96.24
70254;BME280;57649;42.968;1.608;2022-08-26T04:52:57;97451.09;;;19.49;96.50
70254;BME280;57649;42.968;1.608;2022-08-26T04:55:23;97454.69;;;19.42;96.18
70254;BME280;57649;42.968;1.608;2022-08-26T04:57:49;97448.63;;;19.47;95.98
70254;BME280;57649;42.968;1.608;2022-08-26T05:00:15;97452.59;;;19.45;95.52
70254;BME280;57649;42.968;1.608;2022-08-26T05:02:41;97456.91;;;19.52;96.65
70254;BME280;57649;42.968;1.608;2022-08-26T05:05:07;97452.91;;;19.55;96.26
70254;BME280;57649;42.968;1.608;2022-08-26T05:07:33;97457.28;;;19.56;96.22
70254;BME280;57649;42.968;1.608;2022-08-26T05:10:02;97461.13;;;19.48;96.38
70254;BME280;57649;42.968;1.608;2022-08-26T05:12:28;97457.28;;;19.56;95.70
70254;BME280;57649;42.968;1.608;2022-08-26T05:14:54;97453.66;;;19.43;95.50
70254;BME280;57649;42.968;1.608;2022-08-26T05:17:19;97444.78;;;19.55;93.11
70254;BME280;57649;42.968;1.608;2022-08-26T05:19:45;97443.94;;;19.54;94.88
70254;BME280;57649;42.968;1.608;2022-08-26T05:22:11;97450.59;;;19.58;94.30
70254;BME280;57649;42.968;1.608;2022-08-26T05:24:36;97456.09;;;19.70;93.80
70254;BME280;57649;42.968;1.608;2022-08-26T05:27:02;97453.09;;;19.60;93.18
70254;BME280;57649;42.968;1.608;2022-08-26T05:29:28;97442.94;;;19.49;94.03
70254;BME280;57649;42.968;1.608;2022-08-26T05:31:53;97460.28;;;19.48;93.89
70254;BME280;57649;42.968;1.608;2022-08-26T05:34:19;97451.25;;;19.54;91.75
70254;BME280;57649;42.968;1.608;2022-08-26T05:36:45;97451.25;;;19.54;92.94
70254;BME280;57649;42.968;1.608;2022-08-26T05:39:11;97459.31;;;19.42;92.72
70254;BME280;57649;42.968;1.608;2022-08-26T05:41:38;97458.31;;;19.36;93.70
70254;BME280;57649;42.968;1.608;2022-08-26T05:44:08;97459.69;;;19.46;93.79
70254;BME280;57649;42.968;1.608;2022-08-26T05:46:35;97445.91;;;19.47;93.01
70254;BME280;57649;42.968;1.608;2022-08-26T05:49:00;97451.94;;;19.49;92.58
70254;BME280;57649;42.968;1.608;2022-08-26T05:51:26;97449.97;;;19.38;93.21
70254;BME280;57649;42.968;1.608;2022-08-26T05:53:51;97449.19;;;19.31;93.70
70254;BME280;57649;42.968;1.608;2022-08-26T05:56:17;97452.59;;;19.19;94.54
70254;BME280;57649;42.968;1.608;2022-08-26T05:58:44;97454.44;;;19.00;94.68
70254;BME280;57649;42.968;1.608;2022-08-26T06:01:15;97455.22;;;19.08;95.82
70254;BME280;57649;42.968;1.608;2022-08-26T06:03:44;97452.16;;;19.22;95.27
70254;BME280;57649;42.968;1.608;2022-08-26T06:06:16;97445.75;;;19.17;94.75
70254;BME280;57649;42.968;1.608;2022-08-26T06:08:42;97445.09;;;19.21;95.10
70254;BME280;57649;42.968;1.608;2022-08-26T06:11:10;97443.25;;;19.15;95.30
70254;BME280;57649;42.968;1.608;2022-08-26T06:13:37;97448.13;;;19.07;96.37
70254;BME280;57649;42.968;1.608;2022-08-26T06:16:06;97442.31;;;19.03;97.21
70254;BME280;57649;42.968;1.608;2022-08-26T06:18:33;97443.09;;;19.10;97.21
70254;BME280;57649;42.968;1.608;2022-08-26T06:21:31;97443.94;;;19.11;97.99
70254;BME280;57649;42.968;1.608;2022-08-26T06:24:00;97456.00;;;19.15;97.28
70254;BME280;57649;42.968;1.608;2022-08-26T06:26:50;97452.69;;;19.13;97.87
70254;BME280;57649;42.968;1.608;2022-08-26T06:29:17;97464.47;;;19.25;96.28
70254;BME280;57649;42.968;1.608;2022-08-26T06:31:43;97462.59;;;19.26;95.44
70254;BME280;57649;42.968;1.608;2022-08-26T06:34:08;97461.63;;;19.38;94.42
70254;BME280;57649;42.968;1.608;2022-08-26T06:36:34;97457.19;;;19.44;93.78
70254;BME280;57649;42.968;1.608;2022-08-26T06:39:05;97458.19;;;19.50;94.58
70254;BME280;57649;42.968;1.608;2022-08-26T06:41:31;97455.31;;;19.45;92.90
70254;BME280;57649;42.968;1.608;2022-08-26T06:43:58;97456.69;;;19.72;92.95
70254;BME280;57649;42.968;1.608;2022-08-26T06:46:24;97460.34;;;19.85;92.02
70254;BME280;57649;42.968;1.608;2022-08-26T06:48:52;97454.31;;;20.01;90.19
70254;BME280;57649;42.968;1.608;2022-08-26T06:51:20;97455.44;;;20.12;88.98
70254;BME280;57649;42.968;1.608;2022-08-26T06:53:47;97463.75;;;20.17;87.72
70254;BME280;57649;42.968;1.608;2022-08-26T06:56:15;97464.41;;;20.31;87.83
70254;BME280;57649;42.968;1.608;2022-08-26T06:58:41;97458.88;;;20.37;87.18
70254;BME280;57649;42.968;1.608;2022-08-26T07:03:44;97455.94;;;20.69;85.05
70254;BME280;57649;42.968;1.608;2022-08-26T07:06:10;97458.66;;;20.69;84.09
70254;BME280;57649;42.968;1.608;2022-08-26T07:08:35;97449.25;;;20.72;85.23
70254;BME280;57649;42.968;1.608;2022-08-26T07:11:06;97452.31;;;20.75;83.91
70254;BME280;57649;42.968;1.608;2022-08-26T07:13:32;97456.31;;;20.73;83.55
70254;BME280;57649;42.968;1.608;2022-08-26T07:16:04;97449.97;;;20.79;84.05
70254;BME280;57649;42.968;1.608;2022-08-26T07:18:31;97454.13;;;20.93;83.77
70254;BME280;57649;42.968;1.608;2022-08-26T07:21:00;97463.81;;;20.89;83.97
70254;BME280;57649;42.968;1.608;2022-08-26T07:23:26;97460.06;;;20.90;84.03
70254;BME280;57649;42.968;1.608;2022-08-26T07:25:51;97463.34;;;20.92;83.44
70254;BME280;57649;42.968;1.608;2022-08-26T07:28:17;97458.72;;;20.81;82.16
70254;BME280;57649;42.968;1.608;2022-08-26T07:30:42;97463.00;;;21.01;82.70
70254;BME280;57649;42.968;1.608;2022-08-26T07:33:07;97455.44;;;20.91;82.57
70254;BME280;57649;42.968;1.608;2022-08-26T07:35:33;97463.22;;;20.87;83.85
70254;BME280;57649;42.968;1.608;2022-08-26T07:37:58;97453.53;;;20.91;84.02
70254;BME280;57649;42.968;1.608;2022-08-26T07:40:26;97452.13;;;21.01;83.55
70254;BME280;57649;42.968;1.608;2022-08-26T07:42:51;97451.09;;;21.13;83.55
70254;BME280;57649;42.968;1.608;2022-08-26T07:45:17;97448.84;;;21.22;80.42
70254;BME280;57649;42.968;1.608;2022-08-26T07:47:42;97439.47;;;21.06;80.11
70254;BME280;57649;42.968;1.608;2022-08-26T07:50:08;97443.63;;;21.09;80.93
70254;BME280;57649;42.968;1.608;2022-08-26T07:52:34;97462.00;;;21.25;80.84
70254;BME280;57649;42.968;1.608;2022-08-26T07:55:00;97456.19;;;21.33;80.47
70254;BME280;57649;42.968;1.608;2022-08-26T07:57:27;97454.19;;;21.29;79.93
70254;BME280;57649;42.968;1.608;2022-08-26T07:59:53;97457.16;;;21.27;80.35
70254;BME280;57649;42.968;1.608;2022-08-26T08:02:19;97455.72;;;21.37;81.67
70254;BME280;57649;42.968;1.608;2022-08-26T08:04:45;97449.47;;;21.36;81.71
70254;BME280;57649;42.968;1.608;2022-08-26T08:07:10;97456.31;;;21.39;82.27
70254;BME280;57649;42.968;1.608;2022-08-26T08:09:36;97455.47;;;21.26;82.66
70254;BME280;57649;42.968;1.608;2022-08-26T08:12:03;97454.56;;;21.32;82.98
70254;BME280;57649;42.968;1.608;2022-08-26T08:14:28;97451.25;;;21.30;83.28
70254;BME280;57649;42.968;1.608;2022-08-26T08:16:53;97452.53;;;21.40;82.60
70254;BME280;57649;42.968;1.608;2022-08-26T08:19:19;97437.84;;;21.41;83.19
70254;BME280;57649;42.968;1.608;2022-08-26T08:21:44;97443.28;;;21.41;83.42
70254;BME280;57649;42.968;1.608;2022-08-26T08:24:11;97444.38;;;21.51;81.60
70254;BME280;57649;42.968;1.608;2022-08-26T08:26:36;97444.13;;;21.77;81.20
70254;BME280;57649;42.968;1.608;2022-08-26T08:29:02;97445.84;;;22.06;80.87
70254;BME280;57649;42.968;1.608;2022-08-26T08:31:31;97444.59;;;21.73;81.37
70254;BME280;57649;42.968;1.608;2022-08-26T08:33:57;97439.81;;;22.04;79.85
70254;BME280;57649;42.968;1.608;2022-08-26T08:36:22;97444.22;;;22.05;80.58
70254;BME280;57649;42.968;1.608;2022-08-26T08:38:48;97443.13;;;22.18;78.72
70254;BME280;57649;42.968;1.608;2022-08-26T08:41:23;97443.78;;;22.37;76.75
70254;BME280;57649;42.968;1.608;2022-08-26T08:43:52;97435.75;;;22.19;75.71
70254;BME280;57649;42.968;1.608;2022-08-26T08:46:19;97435.06;;;22.11;75.56
70254;BME280;57649;42.968;1.608;2022-08-26T08:48:47;97433.50;;;22.27;75.71
70254;BME280;57649;42.968;1.608;2022-08-26T08:51:38;97421.13;;;22.25;73.31
70254;BME280;57649;42.968;1.608;2022-08-26T08:54:06;97423.53;;;23.24;70.58
70254;BME280;57649;42.968;1.608;2022-08-26T08:56:38;97435.72;;;23.39;70.69
70254;BME280;57649;42.968;1.608;2022-08-26T09:01:41;97429.56;;;22.64;72.19
70254;BME280;57649;42.968;1.608;2022-08-26T09:06:54;97428.28;;;22.55;73.31
70254;BME280;57649;42.968;1.608;2022-08-26T09:09:34;97420.38;;;22.53;73.70
70254;BME280;57649;42.968;1.608;2022-08-26T09:12:03;97421.06;;;22.77;73.83
70254;BME280;57649;42.968;1.608;2022-08-26T09:14:30;97425.88;;;24.16;67.59
70254;BME280;57649;42.968;1.608;2022-08-26T09:19:48;97417.94;;;23.36;69.33
70254;BME280;57649;42.968;1.608;2022-08-26T09:22:30;97420.13;;;24.39;66.66
70254;BME280;57649;42.968;1.608;2022-08-26T09:24:56;97416.66;;;24.98;65.40
70254;BME280;57649;42.968;1.608;2022-08-26T09:27:43;97404.63;;;25.32;62.69
70254;BME280;57649;42.968;1.608;2022-08-26T09:30:13;97398.56;;;26.30;59.96
70254;BME280;57649;42.968;1.608;2022-08-26T09:32:39;97394.00;;;25.93;61.68
70254;BME280;57649;42.968;1.608;2022-08-26T09:35:23;97398.00;;;26.39;59.28
70254;BME280;57649;42.968;1.608;2022-08-26T09:37:49;97391.81;;;26.84;58.09
70254;BME280;57649;42.968;1.608;2022-08-26T09:45:30;97376.66;;;27.59;56.76
70254;BME280;57649;42.968;1.608;2022-08-26T09:47:56;97376.28;;;27.96;54.76
70254;BME280;57649;42.968;1.608;2022-08-26T09:51:25;97376.03;;;28.53;53.21
70254;BME280;57649;42.968;1.608;2022-08-26T09:53:20;97363.94;;;28.44;52.25
70254;BME280;57649;42.968;1.608;2022-08-26T09:55:49;97359.53;;;28.87;50.44
70254;BME280;57649;42.968;1.608;2022-08-26T09:58:37;97364.84;;;28.29;50.68
70254;BME280;57649;42.968;1.608;2022-08-26T10:01:13;97363.72;;;27.70;53.10
70254;BME280;57649;42.968;1.608;2022-08-26T10:03:39;97362.63;;;28.31;52.37
70254;BME280;57649;42.968;1.608;2022-08-26T10:06:19;97355.81;;;27.37;54.43
70254;BME280;57649;42.968;1.608;2022-08-26T10:08:57;97354.06;;;27.77;53.03
70254;BME280;57649;42.968;1.608;2022-08-26T10:14:01;97362.84;;;26.20;56.92
70254;BME280;57649;42.968;1.608;2022-08-26T10:16:54;97350.88;;;27.08;54.58
70254;BME280;57649;42.968;1.608;2022-08-26T10:19:27;97332.75;;;26.97;55.04
70254;BME280;57649;42.968;1.608;2022-08-26T10:22:19;97341.25;;;26.60;55.30
70254;BME280;57649;42.968;1.608;2022-08-26T10:24:50;97344.31;;;26.84;54.92
70254;BME280;57649;42.968;1.608;2022-08-26T10:30:23;97335.19;;;26.42;54.03
70254;BME280;57649;42.968;1.608;2022-08-26T10:32:59;97333.03;;;26.96;53.66
70254;BME280;57649;42.968;1.608;2022-08-26T10:35:26;97329.44;;;26.54;53.63
70254;BME280;57649;42.968;1.608;2022-08-26T10:37:56;97331.06;;;26.50;54.16
70254;BME280;57649;42.968;1.608;2022-08-26T10:40:25;97314.63;;;26.81;53.30
70254;BME280;57649;42.968;1.608;2022-08-26T10:45:19;97312.97;;;27.31;51.69
70254;BME280;57649;42.968;1.608;2022-08-26T10:50:11;97302.44;;;26.00;55.97
70254;BME280;57649;42.968;1.608;2022-08-26T10:55:41;97303.34;;;26.46;54.46
70254;BME280;57649;42.968;1.608;2022-08-26T10:58:29;97303.63;;;26.50;54.70
70254;BME280;57649;42.968;1.608;2022-08-26T11:01:04;97300.84;;;27.32;52.52
70254;BME280;57649;42.968;1.608;2022-08-26T11:06:30;97301.41;;;27.19;51.70
70254;BME280;57649;42.968;1.608;2022-08-26T11:09:04;97296.25;;;26.76;53.44
70254;BME280;57649;42.968;1.608;2022-08-26T11:14:29;97287.13;;;27.22;53.18
70254;BME280;57649;42.968;1.608;2022-08-26T11:16:56;97279.03;;;27.67;52.02
70254;BME280;57649;42.968;1.608;2022-08-26T11:20:16;97280.91;;;27.71;52.01
70254;BME280;57649;42.968;1.608;2022-08-26T11:22:24;97280.84;;;27.92;51.13
70254;BME280;57649;42.968;1.608;2022-08-26T11:35:02;97259.09;;;27.95;50.95
70254;BME280;57649;42.968;1.608;2022-08-26T11:37:35;97248.44;;;28.63;48.79
70254;BME280;57649;42.968;1.608;2022-08-26T11:40:09;97253.28;;;28.02;50.92
70254;BME280;57649;42.968;1.608;2022-08-26T11:42:38;97251.66;;;28.01;50.38
70254;BME280;57649;42.968;1.608;2022-08-26T11:45:25;97246.72;;;27.88;51.29
70254;BME280;57649;42.968;1.608;2022-08-26T11:47:52;97249.13;;;27.50;51.08
70254;BME280;57649;42.968;1.608;2022-08-26T11:50:24;97258.53;;;27.13;52.56
70254;BME280;57649;42.968;1.608;2022-08-26T11:53:01;97254.47;;;27.80;49.75
70254;BME280;57649;42.968;1.608;2022-08-26T11:55:31;97242.94;;;28.28;49.11
70254;BME280;57649;42.968;1.608;2022-08-26T11:57:58;97244.69;;;28.14;49.58
70254;BME280;57649;42.968;1.608;2022-08-26T12:00:27;97244.25;;;27.91;50.73
70254;BME280;57649;42.968;1.608;2022-08-26T12:02:54;97237.47;;;28.23;50.15
70254;BME280;57649;42.968;1.608;2022-08-26T12:05:34;97242.84;;;27.44;51.18
70254;BME280;57649;42.968;1.608;2022-08-26T12:08:09;97244.91;;;26.77;53.20
70254;BME280;57649;42.968;1.608;2022-08-26T12:10:35;97239.06;;;27.09;52.91
70254;BME280;57649;42.968;1.608;2022-08-26T12:13:02;97243.03;;;27.58;52.92
70254;BME280;57649;42.968;1.608;2022-08-26T12:15:29;97231.38;;;27.11;53.81
70254;BME280;57649;42.968;1.608;2022-08-26T12:17:56;97232.16;;;27.22;54.17
70254;BME280;57649;42.968;1.608;2022-08-26T12:20:32;97232.78;;;27.74;52.46
70254;BME280;57649;42.968;1.608;2022-08-26T12:23:45;97224.97;;;27.36;53.02
70254;BME280;57649;42.968;1.608;2022-08-26T12:26:31;97230.59;;;26.59;55.53
70254;BME280;57649;42.968;1.608;2022-08-26T12:29:09;97229.22;;;26.51;54.78
70254;BME280;57649;42.968;1.608;2022-08-26T12:31:42;97226.22;;;26.53;54.58
70254;BME280;57649;42.968;1.608;2022-08-26T12:34:13;97234.44;;;26.17;55.13
70254;BME280;57649;42.968;1.608;2022-08-26T12:36:52;97227.88;;;26.18;55.90
70254;BME280;57649;42.968;1.608;2022-08-26T12:39:28;97226.72;;;25.93;56.50
70254;BME280;57649;42.968;1.608;2022-08-26T12:41:56;97230.59;;;26.18;56.28
70254;BME280;57649;42.968;1.608;2022-08-26T12:44:44;97221.53;;;26.48;54.36
70254;BME280;57649;42.968;1.608;2022-08-26T12:50:20;97214.69;;;26.25;54.64
70254;BME280;57649;42.968;1.608;2022-08-26T12:52:59;97211.13;;;26.40;54.70
70254;BME280;57649;42.968;1.608;2022-08-26T12:55:33;97205.06;;;26.23;55.21
70254;BME280;57649;42.968;1.608;2022-08-26T13:08:54;97203.72;;;26.15;54.88
70254;BME280;57649;42.968;1.608;2022-08-26T13:11:23;97193.28;;;26.22;54.57
70254;BME280;57649;42.968;1.608;2022-08-26T13:13:52;97182.81;;;26.76;53.48
70254;BME280;57649;42.968;1.608;2022-08-26T13:16:20;97185.31;;;26.51;54.57
70254;BME280;57649;42.968;1.608;2022-08-26T13:18:47;97191.09;;;26.14;56.07
70254;BME280;57649;42.968;1.608;2022-08-26T13:21:19;97182.31;;;26.48;53.83
70254;BME280;57649;42.968;1.608;2022-08-26T13:23:45;97180.66;;;26.67;52.66
70254;BME280;57649;42.968;1.608;2022-08-26T13:26:11;97179.53;;;26.79;52.85
70254;BME280;57649;42.968;1.608;2022-08-26T13:28:37;97168.81;;;26.93;53.21
70254;BME280;57649;42.968;1.608;2022-08-26T13:31:03;97171.84;;;26.76;53.45
70254;BME280;57649;42.968;1.608;2022-08-26T13:33:30;97172.25;;;27.29;52.47
70254;BME280;57649;42.968;1.608;2022-08-26T13:35:56;97171.78;;;27.01;51.77
70254;BME280;57649;42.968;1.608;2022-08-26T13:38:22;97164.84;;;27.19;52.68
70254;BME280;57649;42.968;1.608;2022-08-26T13:40:47;97147.09;;;26.91;54.04
70254;BME280;57649;42.968;1.608;2022-08-26T13:43:13;97164.94;;;26.88;53.94
70254;BME280;57649;42.968;1.608;2022-08-26T13:45:38;97158.97;;;26.45;54.84
70254;BME280;57649;42.968;1.608;2022-08-26T13:48:05;97151.56;;;26.51;55.49
70254;BME280;57649;42.968;1.608;2022-08-26T13:50:31;97150.47;;;26.31;54.96
70254;BME280;57649;42.968;1.608;2022-08-26T13:52:57;97142.97;;;26.94;52.69
70254;BME280;57649;42.968;1.608;2022-08-26T13:55:23;97142.50;;;26.61;53.35
70254;BME280;57649;42.968;1.608;2022-08-26T13:57:48;97137.03;;;26.35;54.81
70254;BME280;57649;42.968;1.608;2022-08-26T14:00:14;97137.00;;;26.76;53.99
70254;BME280;57649;42.968;1.608;2022-08-26T14:02:40;97120.63;;;27.16;52.86
70254;BME280;57649;42.968;1.608;2022-08-26T14:05:05;97117.09;;;27.05;53.19
70254;BME280;57649;42.968;1.608;2022-08-26T14:07:31;97123.97;;;27.02;53.94
70254;BME280;57649;42.968;1.608;2022-08-26T14:09:57;97127.06;;;26.85;54.48
70254;BME280;57649;42.968;1.608;2022-08-26T14:12:22;97122.75;;;26.64;53.66